Time;durP1;ratioP1;P1;durP2;ratioP2;P2;SDS_P1;SDS_P2;PMS_P1;PMS_P2;Temp;Humidity;BMP_temperature;BMP_pressure;BME280_temperature;BME280_humidity;BME280_pressure;Samples;Min_cycle;Max_cycle;Signal;HPM_P1;HPM_P2
2023/08/04 00:00:23;;;;;;;34.78;19.27;;;14.60;99.90;;;;;;4992862;28;20387;-71
2023/08/04 00:02:50;;;;;;;39.13;20.17;;;14.50;99.90;;;;;;4991623;28;20038;-71
2023/08/04 00:05:17;;;;;;;34.88;17.98;;;14.50;99.90;;;;;;4994168;28;20042;-70
2023/08/04 00:07:43;;;;;;;32.40;17.55;;;14.50;99.90;;;;;;4988003;28;20453;-71
2023/08/04 00:10:10;;;;;;;36.15;18.02;;;14.50;99.90;;;;;;4989694;28;20587;-71
2023/08/04 00:12:37;;;;;;;30.92;18.23;;;14.50;99.90;;;;;;4992214;28;20050;-71
2023/08/04 00:15:06;;;;;;;37.42;18.65;;;14.50;99.90;;;;;;4984883;28;20720;-71
2023/08/04 00:17:35;;;;;;;33.28;17.45;;;14.50;99.90;;;;;;4989446;28;20049;-71
2023/08/04 00:20:03;;;;;;;31.77;18.10;;;14.50;99.90;;;;;;4991816;28;20155;-70
2023/08/04 00:22:30;;;;;;;30.52;16.13;;;14.50;99.90;;;;;;4969582;28;20046;-72
2023/08/04 00:24:56;;;;;;;36.15;16.92;;;14.40;99.90;;;;;;4989905;28;20053;-74
2023/08/04 00:27:23;;;;;;;40.90;18.77;;;14.40;99.90;;;;;;4992969;28;20492;-73
2023/08/04 00:29:50;;;;;;;29.15;18.35;;;14.40;99.90;;;;;;4996844;28;20860;-73
2023/08/04 00:32:16;;;;;;;35.22;18.67;;;14.40;99.90;;;;;;4995516;28;20042;-73
2023/08/04 00:34:43;;;;;;;30.98;20.02;;;14.50;99.90;;;;;;4990178;28;20126;-73
2023/08/04 00:37:10;;;;;;;31.90;19.45;;;14.50;99.90;;;;;;4994100;28;20046;-71
2023/08/04 00:39:37;;;;;;;28.55;19.45;;;14.50;99.90;;;;;;4994654;28;20046;-70
2023/08/04 00:42:04;;;;;;;31.48;18.70;;;14.50;99.90;;;;;;4985510;28;20049;-70
2023/08/04 00:44:31;;;;;;;37.15;18.13;;;14.50;99.90;;;;;;4975970;28;20054;-72
2023/08/04 00:46:59;;;;;;;28.77;18.38;;;14.50;99.90;;;;;;4978915;28;20072;-72
2023/08/04 00:49:25;;;;;;;28.38;17.15;;;14.40;99.90;;;;;;4996257;28;20058;-71
2023/08/04 00:51:52;;;;;;;33.55;16.75;;;14.40;99.90;;;;;;4990347;28;20094;-71
2023/08/04 00:54:19;;;;;;;37.80;18.90;;;14.40;99.90;;;;;;4991981;28;20193;-71
2023/08/04 00:56:46;;;;;;;26.85;17.30;;;14.40;99.90;;;;;;4992889;28;20133;-71
2023/08/04 00:59:13;;;;;;;33.50;19.17;;;14.40;99.90;;;;;;4984076;28;20138;-70
2023/08/04 01:01:39;;;;;;;32.17;18.45;;;14.40;99.90;;;;;;4998169;28;20583;-72
2023/08/04 01:04:06;;;;;;;30.17;18.35;;;14.40;99.90;;;;;;4992741;28;20057;-71
2023/08/04 01:06:59;;;;;;;22.98;16.35;;;14.40;99.90;;;;;;4995181;28;20050;-71
2023/08/04 01:09:53;;;;;;;31.20;19.08;;;14.40;99.90;;;;;;4989603;28;20050;-70
2023/08/04 01:12:48;;;;;;;33.17;19.40;;;14.40;99.90;;;;;;4996896;28;20033;-72
2023/08/04 01:15:16;;;;;;;30.90;18.47;;;14.40;99.90;;;;;;5006400;28;20688;-72
2023/08/04 01:17:44;;;;;;;36.42;17.45;;;14.40;99.90;;;;;;4991484;28;20052;-72
2023/08/04 01:20:10;;;;;;;35.80;17.98;;;14.40;99.90;;;;;;4997337;28;20644;-72
2023/08/04 01:22:37;;;;;;;34.05;18.65;;;14.30;99.90;;;;;;4998276;28;20049;-72
2023/08/04 01:25:07;;;;;;;35.50;19.15;;;14.30;99.90;;;;;;4978690;28;20082;-71
2023/08/04 01:27:44;;;;;;;31.48;16.88;;;14.30;99.90;;;;;;4996280;28;20129;-72
2023/08/04 01:30:17;;;;;;;38.50;18.00;;;14.30;99.90;;;;;;4995087;28;20416;-71
2023/08/04 01:32:44;;;;;;;36.83;17.33;;;14.30;99.90;;;;;;4994905;28;20042;-70
2023/08/04 01:35:11;;;;;;;35.22;19.60;;;14.30;99.90;;;;;;4992218;28;20132;-71
2023/08/04 01:37:38;;;;;;;37.90;19.45;;;14.30;99.90;;;;;;4993961;28;20091;-72
2023/08/04 01:40:06;;;;;;;30.63;18.00;;;14.30;99.90;;;;;;4990492;28;20376;-71
2023/08/04 01:42:32;;;;;;;30.50;17.00;;;14.30;99.90;;;;;;4994220;28;20620;-71
2023/08/04 01:44:59;;;;;;;28.65;15.73;;;14.30;99.90;;;;;;4976352;28;20046;-71
2023/08/04 01:47:26;;;;;;;25.98;15.82;;;14.30;99.90;;;;;;4995874;28;20540;-70
2023/08/04 01:49:53;;;;;;;30.77;16.60;;;14.30;99.90;;;;;;4991321;28;20046;-71
2023/08/04 01:52:20;;;;;;;27.90;14.43;;;14.20;99.90;;;;;;4977530;28;20551;-70
2023/08/04 01:54:47;;;;;;;24.98;15.27;;;14.20;99.90;;;;;;4989628;28;20045;-71
2023/08/04 01:57:13;;;;;;;29.67;14.98;;;14.20;99.90;;;;;;4977263;28;20038;-71
2023/08/04 01:59:40;;;;;;;25.00;16.08;;;14.20;99.90;;;;;;4993714;28;20065;-70
2023/08/04 02:02:08;;;;;;;26.95;15.45;;;14.30;99.90;;;;;;4993178;28;20750;-71
2023/08/04 02:04:35;;;;;;;25.55;14.05;;;14.30;99.90;;;;;;4978224;28;20038;-70
2023/08/04 02:07:01;;;;;;;27.88;14.98;;;14.30;99.90;;;;;;4995333;28;20122;-71
2023/08/04 02:09:29;;;;;;;24.90;13.07;;;14.30;99.90;;;;;;4992437;28;20038;-70
2023/08/04 02:11:56;;;;;;;29.83;13.07;;;14.30;99.90;;;;;;4977603;28;20042;-70
2023/08/04 02:14:23;;;;;;;19.55;14.10;;;14.30;99.90;;;;;;4997606;28;20068;-70
2023/08/04 02:16:49;;;;;;;31.30;17.80;;;14.20;99.90;;;;;;4995916;28;20037;-71
2023/08/04 02:19:16;;;;;;;28.25;15.93;;;14.30;99.90;;;;;;4993916;28;20496;-71
2023/08/04 02:21:43;;;;;;;27.08;15.13;;;14.20;99.90;;;;;;4996174;28;20061;-70
2023/08/04 02:24:10;;;;;;;27.00;15.52;;;14.20;99.90;;;;;;4981132;28;20049;-70
2023/08/04 02:26:37;;;;;;;22.85;15.05;;;14.10;99.90;;;;;;4993622;28;20045;-70
2023/08/04 02:29:03;;;;;;;32.45;16.67;;;14.10;99.90;;;;;;4987811;23;20205;-82
2023/08/04 02:31:32;;;;;;;30.95;17.52;;;14.30;99.90;;;;;;4985943;28;20096;-84
2023/08/04 02:34:00;;;;;;;26.48;18.02;;;14.30;99.90;;;;;;4974485;28;20038;-83
2023/08/04 02:36:26;;;;;;;26.60;16.00;;;14.20;99.90;;;;;;4992664;28;20043;-85
2023/08/04 02:38:53;;;;;;;27.48;14.27;;;14.20;99.90;;;;;;4987602;28;20050;-82
2023/08/04 02:41:20;;;;;;;26.50;13.90;;;14.20;99.90;;;;;;4969773;28;20423;-85
2023/08/04 02:43:47;;;;;;;34.55;14.50;;;14.10;99.90;;;;;;4970408;28;20121;-81
2023/08/04 02:46:15;;;;;;;28.08;15.30;;;14.10;99.90;;;;;;4976131;28;20042;-82
2023/08/04 02:48:41;;;;;;;33.30;15.18;;;14.00;99.90;;;;;;4989883;28;20065;-81
2023/08/04 02:51:10;;;;;;;28.33;16.05;;;14.10;99.90;;;;;;4989480;28;20057;-84
2023/08/04 02:53:42;;;;;;;44.55;18.17;;;14.10;99.90;;;;;;4976310;28;20928;-83
2023/08/04 02:56:17;;;;;;;29.20;17.75;;;14.10;99.90;;;;;;4986539;28;20662;-83
2023/08/04 02:58:45;;;;;;;29.95;17.48;;;14.10;99.90;;;;;;4989828;28;20227;-82
2023/08/04 03:01:13;;;;;;;33.58;20.30;;;14.10;99.90;;;;;;4996145;28;20050;-82
2023/08/04 03:03:41;;;;;;;31.83;19.67;;;14.30;99.90;;;;;;4993985;28;20073;-84
2023/08/04 03:06:08;;;;;;;44.53;23.13;;;14.30;99.90;;;;;;5005966;28;20049;-82
2023/08/04 03:08:35;;;;;;;39.08;23.05;;;14.20;99.90;;;;;;4988853;28;20130;-86
2023/08/04 03:11:12;;;;;;;46.05;22.17;;;14.20;99.90;;;;;;4989344;28;20132;-83
2023/08/04 03:13:39;;;;;;;41.97;22.85;;;14.20;99.90;;;;;;4992996;28;20135;-84
2023/08/04 03:16:06;;;;;;;42.22;24.20;;;14.20;99.90;;;;;;4991429;28;20164;-83
2023/08/04 03:18:33;;;;;;;53.30;26.13;;;14.10;99.90;;;;;;4992892;28;20460;-84
2023/08/04 03:21:03;;;;;;;49.78;24.58;;;14.10;99.90;;;;;;4991582;28;20045;-82
2023/08/04 03:23:31;;;;;;;46.25;24.77;;;14.20;99.90;;;;;;4986961;28;20069;-83
2023/08/04 03:25:58;;;;;;;52.10;24.98;;;14.20;99.90;;;;;;4987705;28;20556;-81
2023/08/04 03:28:26;;;;;;;42.95;24.30;;;14.20;99.90;;;;;;4974476;28;20176;-83
2023/08/04 03:30:52;;;;;;;49.40;23.98;;;14.20;99.90;;;;;;5009642;28;20049;-82
2023/08/04 03:33:19;;;;;;;48.00;24.30;;;14.30;99.90;;;;;;4989785;28;20128;-81
2023/08/04 03:35:46;;;;;;;50.28;25.15;;;14.20;99.90;;;;;;4990740;28;20096;-83
2023/08/04 03:38:14;;;;;;;48.22;27.25;;;14.20;99.90;;;;;;4990605;28;20049;-82
2023/08/04 03:40:41;;;;;;;47.53;26.92;;;14.20;99.90;;;;;;4987386;28;20033;-82
2023/08/04 03:43:08;;;;;;;48.38;24.77;;;14.20;99.90;;;;;;4970003;28;20050;-83
2023/08/04 03:45:35;;;;;;;45.13;23.33;;;14.20;99.90;;;;;;4976660;28;20073;-82
2023/08/04 03:48:02;;;;;;;55.28;26.63;;;14.10;99.90;;;;;;5006768;28;20042;-82
2023/08/04 03:50:29;;;;;;;43.67;23.10;;;14.20;99.90;;;;;;4992351;28;20057;-80
2023/08/04 03:52:56;;;;;;;47.88;26.27;;;14.10;99.90;;;;;;5011015;28;20525;-84
2023/08/04 03:55:23;;;;;;;49.67;24.35;;;14.10;99.90;;;;;;4983321;28;20550;-82
2023/08/04 03:57:50;;;;;;;43.95;22.55;;;14.10;99.90;;;;;;4993563;28;20139;-83
2023/08/04 04:00:17;;;;;;;46.90;22.17;;;14.10;99.90;;;;;;4978168;28;20061;-83
2023/08/04 04:02:44;;;;;;;39.42;20.60;;;14.10;99.90;;;;;;4979245;28;20061;-84
2023/08/04 04:05:11;;;;;;;33.25;21.55;;;14.20;99.90;;;;;;4974012;28;20042;-84
2023/08/04 04:07:38;;;;;;;36.72;21.20;;;14.10;99.90;;;;;;5003766;28;20064;-85
2023/08/04 04:10:06;;;;;;;44.78;23.48;;;14.00;99.90;;;;;;4978523;28;20104;-84
2023/08/04 04:12:35;;;;;;;52.08;23.05;;;14.10;99.90;;;;;;4995933;28;20467;-84
2023/08/04 04:15:04;;;;;;;44.88;23.13;;;14.10;99.90;;;;;;4975098;28;20484;-85
2023/08/04 04:17:35;;;;;;;52.92;23.25;;;14.00;99.90;;;;;;5003070;28;20046;-85
2023/08/04 04:20:03;;;;;;;38.97;22.23;;;14.10;99.90;;;;;;4994031;28;20391;-84
2023/08/04 04:22:30;;;;;;;42.70;22.95;;;14.00;99.90;;;;;;4982162;28;20041;-85
2023/08/04 04:24:57;;;;;;;46.30;23.98;;;14.10;99.90;;;;;;4997214;28;20075;-83
2023/08/04 04:27:24;;;;;;;43.13;23.23;;;14.10;99.90;;;;;;4979815;28;20507;-84
2023/08/04 04:29:51;;;;;;;46.58;23.38;;;14.10;99.90;;;;;;4992740;28;20116;-83
2023/08/04 04:32:18;;;;;;;38.13;22.58;;;14.00;99.90;;;;;;4972029;28;20056;-85
2023/08/04 04:34:45;;;;;;;52.10;24.35;;;14.10;99.90;;;;;;4991636;28;20439;-82
2023/08/04 04:37:12;;;;;;;46.03;23.40;;;14.10;99.90;;;;;;4993664;28;20086;-83
2023/08/04 04:39:39;;;;;;;38.05;21.88;;;14.20;99.90;;;;;;5010115;28;20659;-83
2023/08/04 04:42:07;;;;;;;42.72;22.98;;;14.20;99.90;;;;;;5009773;28;20611;-84
2023/08/04 04:44:33;;;;;;;45.50;23.05;;;14.10;99.90;;;;;;4996973;28;20058;-82
2023/08/04 04:47:00;;;;;;;43.83;23.60;;;14.20;99.90;;;;;;4991839;28;20148;-84
2023/08/04 04:49:27;;;;;;;50.60;23.15;;;14.20;99.90;;;;;;4978554;28;20056;-83
2023/08/04 04:51:54;;;;;;;41.45;22.50;;;14.20;99.90;;;;;;4998752;28;20071;-85
2023/08/04 04:54:22;;;;;;;31.60;20.10;;;14.20;99.90;;;;;;4992464;28;20046;-84
2023/08/04 04:56:49;;;;;;;45.28;23.75;;;14.20;99.90;;;;;;4985992;28;20407;-83
2023/08/04 04:59:16;;;;;;;43.53;23.23;;;14.30;99.90;;;;;;4989563;28;20455;-83
2023/08/04 05:01:45;;;;;;;40.25;23.55;;;14.30;99.90;;;;;;4996862;28;20183;-84
2023/08/04 05:04:12;;;;;;;40.65;23.58;;;14.30;99.90;;;;;;4992005;28;20058;-82
2023/08/04 05:06:39;;;;;;;40.05;22.33;;;14.40;99.90;;;;;;4976304;28;20057;-83
2023/08/04 05:09:10;;;;;;;45.42;23.88;;;14.40;99.90;;;;;;4997730;28;20061;-84
2023/08/04 05:11:37;;;;;;;46.67;22.75;;;14.40;99.90;;;;;;4973870;28;20045;-84
2023/08/04 05:14:03;;;;;;;35.88;21.88;;;14.50;99.90;;;;;;4993384;28;20707;-84
2023/08/04 05:16:31;;;;;;;43.00;21.33;;;14.30;99.90;;;;;;4974027;28;20038;-83
2023/08/04 05:18:58;;;;;;;42.53;23.85;;;14.30;99.90;;;;;;4983704;28;20074;-82
2023/08/04 05:21:25;;;;;;;45.08;22.33;;;14.40;99.90;;;;;;4996338;28;20107;-83
2023/08/04 05:23:52;;;;;;;49.75;23.15;;;14.30;99.90;;;;;;4996791;28;20064;-83
2023/08/04 05:26:19;;;;;;;40.05;21.52;;;14.40;99.90;;;;;;4989833;28;20042;-81
2023/08/04 05:28:46;;;;;;;41.00;22.52;;;14.50;99.90;;;;;;4975250;28;20104;-82
2023/08/04 05:31:12;;;;;;;42.53;22.08;;;14.50;99.90;;;;;;4971810;28;20046;-84
2023/08/04 05:33:39;;;;;;;41.03;22.67;;;14.60;99.90;;;;;;4997956;28;21488;-84
2023/08/04 05:36:07;;;;;;;36.35;21.63;;;14.70;99.90;;;;;;5013676;28;20140;-83
2023/08/04 05:38:34;;;;;;;44.13;23.88;;;14.70;99.90;;;;;;5009328;28;20049;-84
2023/08/04 05:41:02;;;;;;;35.88;22.13;;;14.70;99.90;;;;;;4977907;28;20045;-85
2023/08/04 05:43:29;;;;;;;40.28;20.65;;;14.70;99.90;;;;;;4976780;28;20224;-84
2023/08/04 05:46:02;;;;;;;35.22;21.05;;;14.70;99.90;;;;;;4991501;28;20117;-84
2023/08/04 05:48:31;;;;;;;29.95;18.67;;;14.70;99.90;;;;;;5000924;28;20069;-83
2023/08/04 05:51:01;;;;;;;31.88;18.52;;;14.70;99.90;;;;;;5011782;28;20096;-83
2023/08/04 05:53:28;;;;;;;26.45;16.98;;;14.70;99.90;;;;;;4994895;28;20038;-83
2023/08/04 05:55:58;;;;;;;36.60;18.90;;;14.90;99.90;;;;;;4992519;28;20141;-83
2023/08/04 05:58:25;;;;;;;28.70;18.33;;;15.20;99.90;;;;;;4983073;28;20480;-84
2023/08/04 06:00:52;;;;;;;28.90;18.10;;;15.20;99.90;;;;;;4980079;28;20810;-83
2023/08/04 06:03:18;;;;;;;38.25;19.27;;;15.20;99.90;;;;;;4987698;28;20049;-83
2023/08/04 06:05:45;;;;;;;26.95;19.35;;;15.20;99.90;;;;;;5000384;28;20052;-84
2023/08/04 06:08:12;;;;;;;30.85;17.85;;;15.20;99.90;;;;;;4992816;28;20049;-84
2023/08/04 06:10:39;;;;;;;29.92;19.98;;;15.20;99.90;;;;;;4975415;28;20038;-83
2023/08/04 06:13:06;;;;;;;52.25;21.13;;;15.20;99.90;;;;;;4993481;28;20543;-84
2023/08/04 06:15:33;;;;;;;31.17;18.70;;;15.30;99.90;;;;;;4995186;28;20045;-83
2023/08/04 06:18:03;;;;;;;24.75;17.40;;;15.20;99.90;;;;;;4977095;28;20046;-83
2023/08/04 06:20:30;;;;;;;29.98;18.88;;;15.10;99.90;;;;;;4995122;28;20044;-83
2023/08/04 06:22:57;;;;;;;37.08;21.45;;;15.10;99.90;;;;;;4978888;28;20042;-83
2023/08/04 06:25:24;;;;;;;36.90;22.77;;;15.10;99.90;;;;;;4992081;28;21140;-83
2023/08/04 06:27:53;;;;;;;32.25;20.52;;;15.10;99.90;;;;;;5001438;28;20132;-82
2023/08/04 06:30:20;;;;;;;31.27;20.05;;;15.10;99.90;;;;;;4992582;28;20354;-83
2023/08/04 06:32:47;;;;;;;31.75;19.58;;;15.10;99.90;;;;;;4979471;28;20092;-82
2023/08/04 06:35:14;;;;;;;34.75;20.70;;;15.00;99.90;;;;;;4992884;28;20042;-84
2023/08/04 06:37:41;;;;;;;32.75;19.83;;;15.00;99.90;;;;;;4981271;28;20053;-82
2023/08/04 06:40:09;;;;;;;32.53;18.98;;;15.00;99.90;;;;;;4993796;28;20053;-83
2023/08/04 06:42:36;;;;;;;41.10;20.67;;;15.00;99.90;;;;;;4997016;28;20119;-83
2023/08/04 06:45:04;;;;;;;34.60;21.33;;;15.10;99.90;;;;;;4992803;28;20073;-85
2023/08/04 06:47:31;;;;;;;39.25;22.70;;;15.00;99.90;;;;;;4997778;28;20052;-86
2023/08/04 06:49:58;;;;;;;42.60;22.95;;;15.00;99.90;;;;;;4982093;28;20045;-87
2023/08/04 06:52:25;;;;;;;40.28;22.00;;;14.90;99.90;;;;;;4996531;28;20042;-84
2023/08/04 06:54:52;;;;;;;40.15;23.05;;;14.90;99.90;;;;;;4981521;28;20129;-86
2023/08/04 06:57:19;;;;;;;38.97;22.05;;;14.90;99.90;;;;;;4995950;28;20042;-82
2023/08/04 06:59:46;;;;;;;43.20;23.10;;;14.90;99.90;;;;;;5016347;28;20587;-84
2023/08/04 07:02:13;;;;;;;41.17;23.52;;;15.00;99.90;;;;;;4999143;28;20052;-84
2023/08/04 07:04:40;;;;;;;45.80;24.52;;;15.10;99.90;;;;;;4981415;28;20057;-85
2023/08/04 07:07:07;;;;;;;35.30;21.88;;;15.00;99.90;;;;;;4988372;28;20057;-85
2023/08/04 07:09:53;;;;;;;49.97;24.13;;;14.90;99.90;;;;;;4971439;28;20069;-82
2023/08/04 07:12:20;;;;;;;45.97;24.33;;;14.80;99.90;;;;;;4993222;28;20050;-84
2023/08/04 07:14:47;;;;;;;41.78;22.52;;;14.80;99.90;;;;;;4998579;28;20052;-84
2023/08/04 07:17:14;;;;;;;34.40;21.77;;;14.90;99.90;;;;;;4997826;28;20048;-85
2023/08/04 07:19:40;;;;;;;46.72;24.40;;;14.90;99.90;;;;;;4997546;28;20037;-84
2023/08/04 07:22:07;;;;;;;41.42;22.65;;;14.90;99.90;;;;;;4994474;28;20054;-83
2023/08/04 07:24:34;;;;;;;37.67;22.20;;;14.90;99.90;;;;;;5013146;28;20081;-85
2023/08/04 07:27:01;;;;;;;38.20;22.52;;;14.90;99.90;;;;;;4978635;28;20727;-82
2023/08/04 07:29:33;;;;;;;44.92;22.17;;;14.90;99.90;;;;;;4983327;28;20053;-83
2023/08/04 07:32:03;;;;;;;43.33;24.10;;;14.90;99.90;;;;;;4991146;28;20033;-82
2023/08/04 07:34:33;;;;;;;41.67;21.80;;;14.90;99.90;;;;;;5015076;28;20033;-86
2023/08/04 07:36:59;;;;;;;42.13;24.17;;;14.90;99.90;;;;;;4997052;28;20042;-82
2023/08/04 07:39:29;;;;;;;38.25;22.95;;;15.00;99.90;;;;;;4996985;28;20073;-84
2023/08/04 07:41:56;;;;;;;34.50;21.52;;;15.00;99.90;;;;;;4992910;28;20104;-84
2023/08/04 07:44:22;;;;;;;30.75;19.27;;;15.00;99.90;;;;;;4997678;28;20269;-82
2023/08/04 07:46:49;;;;;;;32.65;21.33;;;14.90;99.90;;;;;;4991262;28;20053;-83
2023/08/04 07:49:16;;;;;;;38.13;20.25;;;14.90;99.90;;;;;;4991641;28;20050;-82
2023/08/04 07:51:44;;;;;;;34.15;20.90;;;15.00;99.90;;;;;;4981766;28;20621;-83
2023/08/04 07:54:11;;;;;;;35.78;20.67;;;15.00;99.90;;;;;;4992855;28;20049;-82
2023/08/04 07:56:38;;;;;;;42.45;20.92;;;14.90;99.90;;;;;;4975650;28;20056;-82
2023/08/04 07:59:04;;;;;;;30.27;20.02;;;15.00;99.90;;;;;;4991937;28;20047;-83
2023/08/04 08:01:34;;;;;;;28.20;19.90;;;15.10;99.90;;;;;;4990479;28;20046;-83
2023/08/04 08:04:06;;;;;;;36.85;19.33;;;15.20;99.90;;;;;;4979466;28;20137;-83
2023/08/04 08:06:36;;;;;;;28.98;18.65;;;15.30;99.90;;;;;;4997213;28;20052;-84
2023/08/04 08:09:03;;;;;;;29.90;21.25;;;15.40;99.90;;;;;;4975804;28;20120;-83
2023/08/04 08:11:30;;;;;;;25.50;18.70;;;15.60;99.90;;;;;;4983293;28;20112;-83
2023/08/04 08:13:57;;;;;;;24.95;20.25;;;15.70;99.90;;;;;;4988340;28;20070;-84
2023/08/04 08:16:23;;;;;;;28.25;20.20;;;15.90;99.90;;;;;;4996449;28;20038;-79
2023/08/04 08:18:50;;;;;;;25.92;20.50;;;16.10;99.90;;;;;;5005891;28;20038;-82
2023/08/04 08:21:17;;;;;;;23.45;20.98;;;16.30;99.90;;;;;;4988676;28;20047;-81
2023/08/04 08:23:44;;;;;;;23.88;19.70;;;16.50;99.90;;;;;;4973900;28;20049;-81
2023/08/04 08:26:11;;;;;;;22.55;20.38;;;16.60;99.90;;;;;;4996959;28;20053;-80
2023/08/04 08:28:38;;;;;;;22.02;20.10;;;16.60;99.90;;;;;;4995701;28;20884;-81
2023/08/04 08:31:05;;;;;;;21.55;19.48;;;16.70;99.90;;;;;;4984209;28;20103;-80
2023/08/04 08:33:32;;;;;;;21.02;18.98;;;16.90;99.90;;;;;;4980993;28;20048;-82
2023/08/04 08:35:59;;;;;;;21.50;19.70;;;17.10;99.90;;;;;;5001765;28;20053;-80
2023/08/04 08:38:26;;;;;;;22.45;20.65;;;17.00;99.90;;;;;;4980318;28;20099;-83
2023/08/04 08:40:53;;;;;;;23.05;20.98;;;17.10;99.90;;;;;;4996488;28;20049;-81
2023/08/04 08:43:20;;;;;;;23.15;21.05;;;17.10;99.90;;;;;;4991542;28;20113;-80
2023/08/04 08:45:49;;;;;;;22.90;21.05;;;17.10;99.90;;;;;;4989828;28;20049;-81
2023/08/04 08:48:17;;;;;;;23.42;21.55;;;17.10;99.90;;;;;;4982474;28;20058;-83
2023/08/04 08:50:49;;;;;;;21.92;20.02;;;17.10;99.90;;;;;;4975277;28;20070;-83
2023/08/04 08:53:22;;;;;;;23.58;21.80;;;17.30;99.90;;;;;;4986307;28;20050;-82
2023/08/04 08:55:50;;;;;;;23.73;21.58;;;17.40;99.90;;;;;;4989161;28;20155;-82
2023/08/04 08:58:19;;;;;;;23.15;21.50;;;17.50;99.90;;;;;;4987638;28;20042;-80
2023/08/04 09:00:46;;;;;;;25.52;23.38;;;17.40;99.90;;;;;;5014227;28;20034;-79
2023/08/04 09:03:13;;;;;;;24.00;22.38;;;17.30;99.90;;;;;;4990625;28;20237;-81
2023/08/04 09:05:40;;;;;;;25.38;23.42;;;17.30;99.90;;;;;;4991988;28;20041;-81
2023/08/04 09:08:07;;;;;;;24.05;22.25;;;17.30;99.90;;;;;;4993025;28;20064;-81
2023/08/04 09:10:37;;;;;;;23.98;22.17;;;17.20;99.90;;;;;;5002189;28;20100;-80
2023/08/04 09:13:08;;;;;;;24.05;22.05;;;17.10;99.90;;;;;;4992673;28;20380;-85
2023/08/04 09:15:51;;;;;;;25.33;22.98;;;17.00;99.90;;;;;;4992098;28;20045;-79
2023/08/04 09:18:27;;;;;;;25.05;22.90;;;17.10;99.90;;;;;;5011010;28;20108;-80
2023/08/04 09:21:09;;;;;;;25.52;23.67;;;17.20;99.90;;;;;;4996931;28;20042;-80
2023/08/04 09:23:37;;;;;;;24.33;22.27;;;17.10;99.90;;;;;;4994166;28;20205;-84
2023/08/04 09:26:04;;;;;;;22.58;20.33;;;17.00;99.90;;;;;;4991912;28;20177;-79
2023/08/04 09:28:33;;;;;;;23.90;21.73;;;16.90;99.90;;;;;;5013748;28;20046;-82
2023/08/04 09:31:08;;;;;;;23.63;21.67;;;16.70;99.90;;;;;;4980079;28;20703;-80
2023/08/04 09:33:38;;;;;;;26.15;23.50;;;16.70;99.90;;;;;;4993525;28;20046;-84
2023/08/04 09:36:09;;;;;;;24.67;22.88;;;16.80;99.90;;;;;;5007875;28;20105;-82
2023/08/04 09:38:38;;;;;;;23.73;22.13;;;16.80;99.90;;;;;;4994095;28;20495;-82
2023/08/04 09:41:09;;;;;;;23.25;21.10;;;16.90;99.90;;;;;;5012698;28;20042;-82
2023/08/04 09:43:43;;;;;;;25.02;22.77;;;16.90;99.90;;;;;;4995103;28;20144;-82
2023/08/04 09:46:10;;;;;;;22.70;20.88;;;16.80;99.90;;;;;;4991781;28;20362;-81
2023/08/04 09:48:40;;;;;;;20.33;18.77;;;16.70;99.90;;;;;;4999231;28;20405;-82
2023/08/04 09:51:12;;;;;;;21.17;19.45;;;16.50;99.90;;;;;;4973891;28;20115;-82
2023/08/04 09:53:43;;;;;;;20.45;18.63;;;16.40;99.90;;;;;;4992257;28;20724;-83
2023/08/04 09:56:12;;;;;;;22.13;19.75;;;16.50;99.90;;;;;;4993382;28;20046;-81
2023/08/04 09:58:41;;;;;;;22.33;19.45;;;16.50;99.90;;;;;;4976199;28;20082;-81
2023/08/04 10:01:08;;;;;;;19.90;18.30;;;16.60;99.90;;;;;;5016892;28;20045;-80
2023/08/04 10:03:40;;;;;;;20.55;18.85;;;16.70;99.90;;;;;;4976256;28;20052;-81
2023/08/04 10:06:09;;;;;;;22.05;20.33;;;16.80;99.90;;;;;;4996499;28;20077;-82
2023/08/04 10:08:40;;;;;;;21.48;19.73;;;17.00;99.90;;;;;;4997444;28;20046;-81
2023/08/04 10:11:08;;;;;;;23.60;21.70;;;17.20;99.90;;;;;;4985342;28;20620;-83
2023/08/04 10:13:42;;;;;;;24.45;22.33;;;17.60;99.90;;;;;;5004505;28;20061;-83
2023/08/04 10:16:11;;;;;;;23.85;22.25;;;18.00;99.90;;;;;;4984668;28;20058;-85
2023/08/04 10:18:50;;;;;;;25.10;23.27;;;18.20;99.90;;;;;;5022602;28;20057;-82
2023/08/04 10:21:20;;;;;;;23.92;22.30;;;18.40;99.90;;;;;;4999252;28;20046;-83
2023/08/04 10:23:47;;;;;;;23.95;22.35;;;18.50;99.90;;;;;;4993946;28;20052;-83
2023/08/04 10:26:14;;;;;;;24.92;23.13;;;18.60;99.90;;;;;;4996640;28;20051;-83
2023/08/04 10:29:06;;;;;;;23.55;21.95;;;18.70;99.90;;;;;;4981256;28;20057;-85
2023/08/04 10:31:56;;;;;;;24.10;22.40;;;18.70;99.90;;;;;;5002506;28;20053;-82
2023/08/04 10:34:31;;;;;;;25.40;23.17;;;18.90;99.90;;;;;;4998257;28;20496;-86
2023/08/04 10:37:04;;;;;;;24.63;23.00;;;18.90;99.90;;;;;;5001097;28;20045;-83
2023/08/04 10:39:38;;;;;;;24.92;23.05;;;18.90;99.90;;;;;;4994115;28;20046;-84
2023/08/04 10:42:14;;;;;;;25.52;23.60;;;18.90;99.90;;;;;;5003651;28;20037;-83
2023/08/04 10:45:07;;;;;;;26.85;24.30;;;18.80;99.90;;;;;;5003517;28;20061;-82
2023/08/04 10:47:47;;;;;;;26.00;23.92;;;18.60;99.90;;;;;;5013978;28;20046;-84
2023/08/04 10:50:34;;;;;;;25.42;23.65;;;18.60;99.90;;;;;;5007420;28;20057;-83
2023/08/04 10:53:02;;;;;;;27.48;25.27;;;18.50;99.90;;;;;;4992245;28;20041;-81
2023/08/04 10:55:29;;;;;;;26.83;24.98;;;18.40;99.90;;;;;;4986309;28;20861;-81
2023/08/04 10:57:56;;;;;;;26.13;24.17;;;18.20;99.90;;;;;;4991000;28;20045;-82
2023/08/04 11:00:23;;;;;;;25.15;23.33;;;18.20;99.90;;;;;;4986952;28;20123;-82
2023/08/04 11:02:50;;;;;;;25.15;23.20;;;18.10;99.90;;;;;;4989580;28;20181;-83
2023/08/04 11:05:21;;;;;;;25.02;23.27;;;18.00;99.90;;;;;;4990632;28;20141;-82
2023/08/04 11:07:48;;;;;;;23.20;21.90;;;17.90;99.90;;;;;;4989550;28;20130;-81
2023/08/04 11:10:16;;;;;;;24.08;22.38;;;18.00;99.90;;;;;;4987289;28;20057;-82
2023/08/04 11:12:42;;;;;;;24.65;23.02;;;18.10;99.90;;;;;;4967354;28;20038;-82
2023/08/04 11:15:11;;;;;;;25.15;23.42;;;18.20;99.90;;;;;;4970022;28;20050;-82
2023/08/04 11:17:42;;;;;;;25.85;24.25;;;18.50;99.90;;;;;;4987202;28;20144;-83
2023/08/04 11:20:15;;;;;;;25.08;23.35;;;18.40;99.90;;;;;;4992325;28;20053;-83
2023/08/04 11:22:48;;;;;;;24.63;22.73;;;18.40;99.90;;;;;;4970637;28;20048;-82
2023/08/04 11:25:16;;;;;;;23.33;21.85;;;18.40;99.90;;;;;;4977852;28;20049;-85
2023/08/04 11:27:45;;;;;;;23.48;22.17;;;18.40;99.90;;;;;;4968766;28;20100;-83
2023/08/04 11:30:12;;;;;;;25.00;23.33;;;18.60;99.90;;;;;;4990423;28;20696;-84
2023/08/04 11:32:40;;;;;;;24.33;22.73;;;18.90;99.90;;;;;;4993350;28;20109;-83
2023/08/04 11:35:07;;;;;;;24.08;22.40;;;19.00;99.90;;;;;;4977600;28;20057;-83
2023/08/04 11:37:34;;;;;;;23.17;21.85;;;19.30;99.90;;;;;;4989041;28;20108;-84
2023/08/04 11:40:01;;;;;;;23.30;22.00;;;19.40;99.90;;;;;;4972956;28;20056;-84
2023/08/04 11:42:29;;;;;;;24.02;22.73;;;19.60;99.90;;;;;;4963357;28;20085;-84
2023/08/04 11:44:55;;;;;;;22.83;21.52;;;19.90;99.90;;;;;;4988178;28;20536;-86
2023/08/04 11:47:24;;;;;;;25.00;23.42;;;20.30;99.90;;;;;;4986442;28;20481;-84
2023/08/04 11:49:52;;;;;;;26.35;24.58;;;20.70;99.90;;;;;;4979553;28;20396;-83
2023/08/04 11:52:19;;;;;;;22.77;21.27;;;20.80;99.90;;;;;;4982935;28;20079;-82
2023/08/04 11:54:59;;;;;;;27.73;26.30;;;21.20;99.90;;;;;;4986722;28;20149;-83
2023/08/04 11:57:26;;;;;;;26.45;24.80;;;21.60;99.90;;;;;;4989107;28;20070;-82
2023/08/04 11:59:55;;;;;;;23.63;22.42;;;21.70;99.90;;;;;;4983162;28;20070;-84
2023/08/04 12:02:22;;;;;;;24.73;23.30;;;21.40;99.90;;;;;;4996346;28;20041;-84
2023/08/04 12:05:10;;;;;;;24.58;23.23;;;21.20;99.90;;;;;;4991119;28;20053;-83
2023/08/04 12:07:38;;;;;;;25.75;24.33;;;21.00;99.90;;;;;;4987148;28;20177;-82
2023/08/04 12:10:06;;;;;;;27.77;26.27;;;20.90;99.90;;;;;;4986600;28;20046;-84
2023/08/04 12:12:38;;;;;;;25.83;24.23;;;21.10;99.90;;;;;;5000102;28;20062;-83
2023/08/04 12:15:06;;;;;;;26.05;24.17;;;21.00;99.90;;;;;;4973584;28;20141;-84
2023/08/04 12:17:41;;;;;;;25.25;23.83;;;20.90;99.90;;;;;;4978782;28;20037;-83
2023/08/04 12:20:10;;;;;;;25.23;23.73;;;20.90;99.90;;;;;;4995377;28;20538;-84
2023/08/04 12:22:42;;;;;;;31.33;29.55;;;20.90;99.90;;;;;;4961589;28;20678;-83
2023/08/04 12:25:10;;;;;;;26.45;24.60;;;21.20;99.90;;;;;;4970609;28;20058;-84
2023/08/04 12:27:37;;;;;;;26.58;25.08;;;21.80;99.90;;;;;;4985184;28;21185;-85
2023/08/04 12:30:04;;;;;;;29.17;27.05;;;22.10;99.90;;;;;;4996086;28;20151;-84
2023/08/04 12:32:31;;;;;;;26.27;24.77;;;22.10;99.90;;;;;;5003784;28;20751;-83
2023/08/04 12:34:58;;;;;;;26.73;25.15;;;22.10;99.90;;;;;;4991766;28;20494;-84